sensor_id;sensor_type;location;lat;lon;timestamp;temperature;humidity
15259;DHT22;34462;51.368;12.364;2022-10-18T00:01:07;14.70;99.90
15259;DHT22;34462;51.368;12.364;2022-10-18T00:03:36;14.70;99.90
15259;DHT22;34462;51.368;12.364;2022-10-18T00:06:06;14.80;99.90
15259;DHT22;34462;51.368;12.364;2022-10-18T00:08:35;14.80;99.90
15259;DHT22;34462;51.368;12.364;2022-10-18T00:11:04;14.80;99.90
15259;DHT22;34462;51.368;12.364;2022-10-18T00:13:33;14.70;99.90
15259;DHT22;34462;51.368;12.364;2022-10-18T00:16:07;14.70;99.90
15259;DHT22;34462;51.368;12.364;2022-10-18T00:18:38;14.70;99.90
15259;DHT22;34462;51.368;12.364;2022-10-18T00:21:09;14.80;99.90
15259;DHT22;34462;51.368;12.364;2022-10-18T00:23:39;14.70;99.90
15259;DHT22;34462;51.368;12.364;2022-10-18T00:26:10;14.70;99.90
15259;DHT22;34462;51.368;12.364;2022-10-18T00:28:41;14.70;99.90
15259;DHT22;34462;51.368;12.364;2022-10-18T00:31:17;14.70;99.90
15259;DHT22;34462;51.368;12.364;2022-10-18T00:33:48;14.70;99.90
15259;DHT22;34462;51.368;12.364;2022-10-18T00:36:18;14.80;99.90
15259;DHT22;34462;51.368;12.364;2022-10-18T00:38:48;14.80;99.90
15259;DHT22;34462;51.368;12.364;2022-10-18T00:41:19;14.90;99.90
15259;DHT22;34462;51.368;12.364;2022-10-18T00:43:54;15.00;99.90
15259;DHT22;34462;51.368;12.364;2022-10-18T00:46:27;15.10;99.90
15259;DHT22;34462;51.368;12.364;2022-10-18T00:48:58;15.20;99.90
15259;DHT22;34462;51.368;12.364;2022-10-18T00:51:32;15.20;99.90
15259;DHT22;34462;51.368;12.364;2022-10-18T00:54:04;15.20;99.90
15259;DHT22;34462;51.368;12.364;2022-10-18T00:56:32;15.20;99.90
15259;DHT22;34462;51.368;12.364;2022-10-18T00:59:01;15.20;99.90
15259;DHT22;34462;51.368;12.364;2022-10-18T01:01:31;15.20;99.90
15259;DHT22;34462;51.368;12.364;2022-10-18T01:03:59;15.20;99.90
15259;DHT22;34462;51.368;12.364;2022-10-18T01:06:28;15.10;99.90
15259;DHT22;34462;51.368;12.364;2022-10-18T01:09:04;15.20;99.90
15259;DHT22;34462;51.368;12.364;2022-10-18T01:12:00;15.20;99.90
15259;DHT22;34462;51.368;12.364;2022-10-18T01:14:42;15.20;99.90
15259;DHT22;34462;51.368;12.364;2022-10-18T01:17:22;15.20;99.90
15259;DHT22;34462;51.368;12.364;2022-10-18T01:23:44;15.10;99.90
15259;DHT22;34462;51.368;12.364;2022-10-18T01:26:49;15.10;99.90
15259;DHT22;34462;51.368;12.364;2022-10-18T01:29:44;15.10;99.90
15259;DHT22;34462;51.368;12.364;2022-10-18T01:32:26;15.10;99.90
15259;DHT22;34462;51.368;12.364;2022-10-18T01:35:03;15.10;99.90
15259;DHT22;34462;51.368;12.364;2022-10-18T01:37:36;15.10;99.90
15259;DHT22;34462;51.368;12.364;2022-10-18T01:40:08;15.10;99.90
15259;DHT22;34462;51.368;12.364;2022-10-18T01:42:39;15.10;99.90
15259;DHT22;34462;51.368;12.364;2022-10-18T01:45:10;15.20;99.90
15259;DHT22;34462;51.368;12.364;2022-10-18T01:47:43;15.10;99.90
15259;DHT22;34462;51.368;12.364;2022-10-18T01:50:13;15.20;99.90
15259;DHT22;34462;51.368;12.364;2022-10-18T01:52:48;15.20;99.90
15259;DHT22;34462;51.368;12.364;2022-10-18T01:55:17;15.20;99.90
15259;DHT22;34462;51.368;12.364;2022-10-18T01:58:00;15.20;99.90
15259;DHT22;34462;51.368;12.364;2022-10-18T02:00:37;15.30;99.90
15259;DHT22;34462;51.368;12.364;2022-10-18T02:03:14;15.30;99.90
15259;DHT22;34462;51.368;12.364;2022-10-18T02:05:50;15.30;99.90
15259;DHT22;34462;51.368;12.364;2022-10-18T02:08:28;15.40;99.90
15259;DHT22;34462;51.368;12.364;2022-10-18T02:11:03;15.30;99.90
15259;DHT22;34462;51.368;12.364;2022-10-18T02:13:36;15.40;99.90
15259;DHT22;34462;51.368;12.364;2022-10-18T02:16:09;15.40;99.90
15259;DHT22;34462;51.368;12.364;2022-10-18T02:18:46;15.40;99.90
15259;DHT22;34462;51.368;12.364;2022-10-18T02:21:18;15.40;99.90
15259;DHT22;34462;51.368;12.364;2022-10-18T02:23:49;15.40;99.90
15259;DHT22;34462;51.368;12.364;2022-10-18T02:26:18;15.40;99.90
15259;DHT22;34462;51.368;12.364;2022-10-18T02:28:47;15.40;99.90
15259;DHT22;34462;51.368;12.364;2022-10-18T02:31:18;15.40;99.90
15259;DHT22;34462;51.368;12.364;2022-10-18T02:33:56;15.40;99.90
15259;DHT22;34462;51.368;12.364;2022-10-18T02:36:32;15.40;99.90
15259;DHT22;34462;51.368;12.364;2022-10-18T02:39:08;15.50;99.90
15259;DHT22;34462;51.368;12.364;2022-10-18T02:41:41;15.40;99.90
15259;DHT22;34462;51.368;12.364;2022-10-18T02:44:09;15.50;99.90
15259;DHT22;34462;51.368;12.364;2022-10-18T02:46:38;15.50;99.90
15259;DHT22;34462;51.368;12.364;2022-10-18T02:49:07;15.40;99.90
15259;DHT22;34462;51.368;12.364;2022-10-18T02:51:35;15.40;99.90
15259;DHT22;34462;51.368;12.364;2022-10-18T02:54:04;15.40;99.90
15259;DHT22;34462;51.368;12.364;2022-10-18T02:56:34;15.40;99.90
15259;DHT22;34462;51.368;12.364;2022-10-18T02:59:02;15.50;99.90
15259;DHT22;34462;51.368;12.364;2022-10-18T03:01:32;15.40;99.90
15259;DHT22;34462;51.368;12.364;2022-10-18T03:04:02;15.50;99.90
15259;DHT22;34462;51.368;12.364;2022-10-18T03:06:32;15.50;99.90
15259;DHT22;34462;51.368;12.364;2022-10-18T03:09:01;15.50;99.90
15259;DHT22;34462;51.368;12.364;2022-10-18T03:11:30;15.50;99.90
15259;DHT22;34462;51.368;12.364;2022-10-18T03:13:59;15.50;99.90
15259;DHT22;34462;51.368;12.364;2022-10-18T03:16:27;15.50;99.90
15259;DHT22;34462;51.368;12.364;2022-10-18T03:18:55;15.60;99.90
15259;DHT22;34462;51.368;12.364;2022-10-18T03:21:23;15.60;99.90
15259;DHT22;34462;51.368;12.364;2022-10-18T03:23:52;15.60;99.90
15259;DHT22;34462;51.368;12.364;2022-10-18T03:26:20;15.60;99.90
15259;DHT22;34462;51.368;12.364;2022-10-18T03:28:48;15.60;99.90
15259;DHT22;34462;51.368;12.364;2022-10-18T03:31:16;15.60;99.90
15259;DHT22;34462;51.368;12.364;2022-10-18T03:33:45;15.60;99.90
15259;DHT22;34462;51.368;12.364;2022-10-18T03:36:13;15.60;99.90
15259;DHT22;34462;51.368;12.364;2022-10-18T03:38:41;15.60;99.90
15259;DHT22;34462;51.368;12.364;2022-10-18T03:41:11;15.70;99.90
15259;DHT22;34462;51.368;12.364;2022-10-18T03:43:39;15.60;99.90
15259;DHT22;34462;51.368;12.364;2022-10-18T03:46:07;15.60;99.90
15259;DHT22;34462;51.368;12.364;2022-10-18T03:48:35;15.60;99.90
15259;DHT22;34462;51.368;12.364;2022-10-18T03:51:03;15.70;99.90
15259;DHT22;34462;51.368;12.364;2022-10-18T03:53:32;15.60;99.90
15259;DHT22;34462;51.368;12.364;2022-10-18T03:56:00;15.60;99.90
15259;DHT22;34462;51.368;12.364;2022-10-18T03:58:29;15.70;99.90
15259;DHT22;34462;51.368;12.364;2022-10-18T04:00:57;15.70;99.90
15259;DHT22;34462;51.368;12.364;2022-10-18T04:03:25;15.70;99.90
15259;DHT22;34462;51.368;12.364;2022-10-18T04:05:53;15.70;99.90
15259;DHT22;34462;51.368;12.364;2022-10-18T04:08:22;15.70;99.90
15259;DHT22;34462;51.368;12.364;2022-10-18T04:10:50;15.70;99.90
15259;DHT22;34462;51.368;12.364;2022-10-18T04:13:18;15.70;99.90
15259;DHT22;34462;51.368;12.364;2022-10-18T04:15:47;15.80;99.90
15259;DHT22;34462;51.368;12.364;2022-10-18T04:18:15;15.70;99.90
15259;DHT22;34462;51.368;12.364;2022-10-18T04:20:44;15.80;99.90
15259;DHT22;34462;51.368;12.364;2022-10-18T04:23:12;15.80;99.90
15259;DHT22;34462;51.368;12.364;2022-10-18T04:25:40;15.80;99.90
15259;DHT22;34462;51.368;12.364;2022-10-18T04:28:09;15.80;99.90
15259;DHT22;34462;51.368;12.364;2022-10-18T04:30:37;15.80;99.90
15259;DHT22;34462;51.368;12.364;2022-10-18T04:33:06;15.80;99.90
15259;DHT22;34462;51.368;12.364;2022-10-18T04:35:34;15.80;99.90
15259;DHT22;34462;51.368;12.364;2022-10-18T04:38:03;15.80;99.90
15259;DHT22;34462;51.368;12.364;2022-10-18T04:40:31;15.80;99.90
15259;DHT22;34462;51.368;12.364;2022-10-18T04:42:59;15.80;99.90
15259;DHT22;34462;51.368;12.364;2022-10-18T04:45:27;15.80;99.90
15259;DHT22;34462;51.368;12.364;2022-10-18T04:47:55;15.90;99.90
15259;DHT22;34462;51.368;12.364;2022-10-18T04:50:24;16.00;99.90
15259;DHT22;34462;51.368;12.364;2022-10-18T04:52:52;15.90;99.90
15259;DHT22;34462;51.368;12.364;2022-10-18T04:55:20;15.90;99.90
15259;DHT22;34462;51.368;12.364;2022-10-18T04:57:48;15.90;99.90
15259;DHT22;34462;51.368;12.364;2022-10-18T05:00:17;15.90;99.90
15259;DHT22;34462;51.368;12.364;2022-10-18T05:02:45;15.80;99.90
15259;DHT22;34462;51.368;12.364;2022-10-18T05:05:13;15.90;99.90
15259;DHT22;34462;51.368;12.364;2022-10-18T05:07:42;15.80;99.90
15259;DHT22;34462;51.368;12.364;2022-10-18T05:10:10;15.90;99.90
15259;DHT22;34462;51.368;12.364;2022-10-18T05:12:38;15.90;99.90
15259;DHT22;34462;51.368;12.364;2022-10-18T05:15:07;15.90;99.90
15259;DHT22;34462;51.368;12.364;2022-10-18T05:17:35;15.90;99.90
15259;DHT22;34462;51.368;12.364;2022-10-18T05:20:04;15.90;99.90
15259;DHT22;34462;51.368;12.364;2022-10-18T05:22:33;15.90;99.90
15259;DHT22;34462;51.368;12.364;2022-10-18T05:25:02;16.00;99.90
15259;DHT22;34462;51.368;12.364;2022-10-18T05:27:31;15.90;99.90
15259;DHT22;34462;51.368;12.364;2022-10-18T05:29:59;16.10;99.90
15259;DHT22;34462;51.368;12.364;2022-10-18T05:32:31;15.90;99.90
15259;DHT22;34462;51.368;12.364;2022-10-18T05:34:59;15.90;99.90
15259;DHT22;34462;51.368;12.364;2022-10-18T05:37:27;15.90;99.90
15259;DHT22;34462;51.368;12.364;2022-10-18T05:39:55;15.90;99.90
15259;DHT22;34462;51.368;12.364;2022-10-18T05:42:25;15.90;99.90
15259;DHT22;34462;51.368;12.364;2022-10-18T05:44:53;15.90;99.90
15259;DHT22;34462;51.368;12.364;2022-10-18T05:47:21;15.90;99.90
15259;DHT22;34462;51.368;12.364;2022-10-18T05:49:49;15.90;99.90
15259;DHT22;34462;51.368;12.364;2022-10-18T05:52:17;16.00;99.90
15259;DHT22;34462;51.368;12.364;2022-10-18T05:54:45;15.90;99.90
15259;DHT22;34462;51.368;12.364;2022-10-18T05:57:13;16.00;99.90
15259;DHT22;34462;51.368;12.364;2022-10-18T05:59:42;15.90;99.90
15259;DHT22;34462;51.368;12.364;2022-10-18T06:02:11;15.90;99.90
15259;DHT22;34462;51.368;12.364;2022-10-18T06:04:39;15.90;99.90
15259;DHT22;34462;51.368;12.364;2022-10-18T06:07:08;15.90;99.90
15259;DHT22;34462;51.368;12.364;2022-10-18T06:09:37;16.00;99.90
15259;DHT22;34462;51.368;12.364;2022-10-18T06:12:05;16.00;99.90
15259;DHT22;34462;51.368;12.364;2022-10-18T06:14:34;16.00;99.90
15259;DHT22;34462;51.368;12.364;2022-10-18T06:17:04;16.00;99.90
15259;DHT22;34462;51.368;12.364;2022-10-18T06:19:32;16.00;99.90
15259;DHT22;34462;51.368;12.364;2022-10-18T06:22:00;16.00;99.90
15259;DHT22;34462;51.368;12.364;2022-10-18T06:24:28;16.00;99.90
15259;DHT22;34462;51.368;12.364;2022-10-18T06:26:56;16.10;99.90
15259;DHT22;34462;51.368;12.364;2022-10-18T06:29:24;16.00;99.90
15259;DHT22;34462;51.368;12.364;2022-10-18T06:31:52;16.10;99.90
15259;DHT22;34462;51.368;12.364;2022-10-18T06:34:21;16.10;99.90
15259;DHT22;34462;51.368;12.364;2022-10-18T06:36:49;16.10;99.90
15259;DHT22;34462;51.368;12.364;2022-10-18T06:39:23;16.10;99.90
15259;DHT22;34462;51.368;12.364;2022-10-18T06:41:52;16.10;99.90
15259;DHT22;34462;51.368;12.364;2022-10-18T06:44:20;16.10;99.90
15259;DHT22;34462;51.368;12.364;2022-10-18T06:46:48;16.10;99.90
15259;DHT22;34462;51.368;12.364;2022-10-18T06:49:17;16.10;99.90
15259;DHT22;34462;51.368;12.364;2022-10-18T06:51:46;16.10;99.90
15259;DHT22;34462;51.368;12.364;2022-10-18T06:54:14;16.10;99.90
15259;DHT22;34462;51.368;12.364;2022-10-18T06:56:44;16.20;99.90
15259;DHT22;34462;51.368;12.364;2022-10-18T06:59:12;16.30;99.90
15259;DHT22;34462;51.368;12.364;2022-10-18T07:01:41;16.30;99.90
15259;DHT22;34462;51.368;12.364;2022-10-18T07:04:09;16.20;99.90
15259;DHT22;34462;51.368;12.364;2022-10-18T07:06:37;16.20;99.90
15259;DHT22;34462;51.368;12.364;2022-10-18T07:09:06;16.20;99.90
15259;DHT22;34462;51.368;12.364;2022-10-18T07:11:34;16.20;99.90
15259;DHT22;34462;51.368;12.364;2022-10-18T07:14:02;16.40;99.90
15259;DHT22;34462;51.368;12.364;2022-10-18T07:16:31;16.30;99.90
15259;DHT22;34462;51.368;12.364;2022-10-18T07:19:00;16.30;99.90
15259;DHT22;34462;51.368;12.364;2022-10-18T07:21:28;16.30;99.90
15259;DHT22;34462;51.368;12.364;2022-10-18T07:23:57;16.30;99.90
15259;DHT22;34462;51.368;12.364;2022-10-18T07:26:28;16.40;99.90
15259;DHT22;34462;51.368;12.364;2022-10-18T07:28:58;16.30;99.90
15259;DHT22;34462;51.368;12.364;2022-10-18T07:31:28;16.20;99.90
15259;DHT22;34462;51.368;12.364;2022-10-18T07:33:56;16.30;99.90
15259;DHT22;34462;51.368;12.364;2022-10-18T07:36:24;16.30;99.90
15259;DHT22;34462;51.368;12.364;2022-10-18T07:38:53;16.30;99.90
15259;DHT22;34462;51.368;12.364;2022-10-18T07:41:21;16.30;99.90
15259;DHT22;34462;51.368;12.364;2022-10-18T07:43:51;16.20;99.90
15259;DHT22;34462;51.368;12.364;2022-10-18T07:46:21;16.20;99.90
15259;DHT22;34462;51.368;12.364;2022-10-18T07:48:49;16.20;99.90
15259;DHT22;34462;51.368;12.364;2022-10-18T07:51:20;16.20;99.90
15259;DHT22;34462;51.368;12.364;2022-10-18T07:53:49;16.20;99.90
15259;DHT22;34462;51.368;12.364;2022-10-18T07:56:18;16.00;99.90
15259;DHT22;34462;51.368;12.364;2022-10-18T07:58:48;15.90;99.90
15259;DHT22;34462;51.368;12.364;2022-10-18T08:01:19;15.70;99.90
15259;DHT22;34462;51.368;12.364;2022-10-18T08:03:51;15.60;99.90
15259;DHT22;34462;51.368;12.364;2022-10-18T08:06:21;15.40;99.90
15259;DHT22;34462;51.368;12.364;2022-10-18T08:08:50;15.40;99.90
15259;DHT22;34462;51.368;12.364;2022-10-18T08:11:20;15.30;99.90
15259;DHT22;34462;51.368;12.364;2022-10-18T08:13:51;15.30;99.90
15259;DHT22;34462;51.368;12.364;2022-10-18T08:16:21;15.30;99.90
15259;DHT22;34462;51.368;12.364;2022-10-18T08:18:51;15.30;99.90
15259;DHT22;34462;51.368;12.364;2022-10-18T08:21:20;15.30;99.90
15259;DHT22;34462;51.368;12.364;2022-10-18T08:23:48;15.30;99.90
15259;DHT22;34462;51.368;12.364;2022-10-18T08:26:19;15.30;99.90
15259;DHT22;34462;51.368;12.364;2022-10-18T08:28:50;15.30;99.90
15259;DHT22;34462;51.368;12.364;2022-10-18T08:31:29;15.30;99.90
15259;DHT22;34462;51.368;12.364;2022-10-18T08:33:57;15.30;99.90
15259;DHT22;34462;51.368;12.364;2022-10-18T08:36:25;15.30;99.90
15259;DHT22;34462;51.368;12.364;2022-10-18T08:38:53;15.30;99.90
15259;DHT22;34462;51.368;12.364;2022-10-18T08:41:42;15.30;99.90
15259;DHT22;34462;51.368;12.364;2022-10-18T08:44:22;15.20;99.90
15259;DHT22;34462;51.368;12.364;2022-10-18T08:46:57;15.20;99.90
15259;DHT22;34462;51.368;12.364;2022-10-18T08:49:35;15.10;99.90
15259;DHT22;34462;51.368;12.364;2022-10-18T08:52:15;15.10;99.90
15259;DHT22;34462;51.368;12.364;2022-10-18T08:54:55;15.10;99.90
15259;DHT22;34462;51.368;12.364;2022-10-18T08:57:29;15.10;99.90
15259;DHT22;34462;51.368;12.364;2022-10-18T09:00:00;15.00;99.90
15259;DHT22;34462;51.368;12.364;2022-10-18T09:02:38;15.00;99.90
15259;DHT22;34462;51.368;12.364;2022-10-18T09:05:21;15.00;99.90
15259;DHT22;34462;51.368;12.364;2022-10-18T09:08:18;15.00;99.90
15259;DHT22;34462;51.368;12.364;2022-10-18T09:11:14;15.00;99.90
15259;DHT22;34462;51.368;12.364;2022-10-18T09:14:20;15.00;99.90
15259;DHT22;34462;51.368;12.364;2022-10-18T09:17:14;15.00;99.90
15259;DHT22;34462;51.368;12.364;2022-10-18T09:20:01;15.10;99.90
15259;DHT22;34462;51.368;12.364;2022-10-18T09:22:53;15.10;99.90
15259;DHT22;34462;51.368;12.364;2022-10-18T09:25:25;15.10;99.90
15259;DHT22;34462;51.368;12.364;2022-10-18T09:28:14;15.10;99.90
15259;DHT22;34462;51.368;12.364;2022-10-18T09:30:53;15.10;99.90
15259;DHT22;34462;51.368;12.364;2022-10-18T09:33:38;15.20;99.90
15259;DHT22;34462;51.368;12.364;2022-10-18T09:36:16;15.20;99.90
15259;DHT22;34462;51.368;12.364;2022-10-18T09:38:51;15.30;99.90
15259;DHT22;34462;51.368;12.364;2022-10-18T09:41:29;15.40;99.90
15259;DHT22;34462;51.368;12.364;2022-10-18T09:44:04;15.40;99.90
15259;DHT22;34462;51.368;12.364;2022-10-18T09:46:44;15.40;99.90
15259;DHT22;34462;51.368;12.364;2022-10-18T09:49:21;15.30;99.90
15259;DHT22;34462;51.368;12.364;2022-10-18T09:51:52;15.30;99.90
15259;DHT22;34462;51.368;12.364;2022-10-18T09:54:27;15.40;99.90
15259;DHT22;34462;51.368;12.364;2022-10-18T09:57:03;15.40;99.90
15259;DHT22;34462;51.368;12.364;2022-10-18T09:59:39;15.40;99.90
15259;DHT22;34462;51.368;12.364;2022-10-18T10:02:13;15.40;99.90
15259;DHT22;34462;51.368;12.364;2022-10-18T10:04:44;15.50;99.90
15259;DHT22;34462;51.368;12.364;2022-10-18T10:07:13;15.50;99.90
15259;DHT22;34462;51.368;12.364;2022-10-18T10:09:46;15.50;99.90
15259;DHT22;34462;51.368;12.364;2022-10-18T10:12:29;15.50;99.90
15259;DHT22;34462;51.368;12.364;2022-10-18T10:15:15;15.50;99.90
15259;DHT22;34462;51.368;12.364;2022-10-18T10:17:54;15.60;99.90
15259;DHT22;34462;51.368;12.364;2022-10-18T10:20:30;15.60;99.90
15259;DHT22;34462;51.368;12.364;2022-10-18T10:23:07;15.60;99.90
15259;DHT22;34462;51.368;12.364;2022-10-18T10:25:41;15.60;99.90
15259;DHT22;34462;51.368;12.364;2022-10-18T10:28:13;15.60;99.90
15259;DHT22;34462;51.368;12.364;2022-10-18T10:30:44;15.60;99.90
15259;DHT22;34462;51.368;12.364;2022-10-18T10:33:29;15.70;99.90
15259;DHT22;34462;51.368;12.364;2022-10-18T10:36:02;15.80;99.90
15259;DHT22;34462;51.368;12.364;2022-10-18T10:38:32;16.00;99.90
15259;DHT22;34462;51.368;12.364;2022-10-18T10:41:00;16.10;99.90
15259;DHT22;34462;51.368;12.364;2022-10-18T10:43:30;16.10;99.90
15259;DHT22;34462;51.368;12.364;2022-10-18T10:46:06;16.20;99.90
15259;DHT22;34462;51.368;12.364;2022-10-18T10:48:44;16.20;99.90
15259;DHT22;34462;51.368;12.364;2022-10-18T10:51:26;16.30;99.90
15259;DHT22;34462;51.368;12.364;2022-10-18T10:54:00;16.30;99.90
15259;DHT22;34462;51.368;12.364;2022-10-18T10:56:31;16.40;99.90
15259;DHT22;34462;51.368;12.364;2022-10-18T10:59:08;16.40;99.90
15259;DHT22;34462;51.368;12.364;2022-10-18T11:01:42;16.40;99.90
15259;DHT22;34462;51.368;12.364;2022-10-18T11:04:25;16.50;99.90
15259;DHT22;34462;51.368;12.364;2022-10-18T11:07:08;16.50;99.90
15259;DHT22;34462;51.368;12.364;2022-10-18T11:09:57;16.50;99.90
15259;DHT22;34462;51.368;12.364;2022-10-18T11:12:33;16.60;99.90
15259;DHT22;34462;51.368;12.364;2022-10-18T11:15:13;16.60;99.90
15259;DHT22;34462;51.368;12.364;2022-10-18T11:17:52;16.60;99.90
15259;DHT22;34462;51.368;12.364;2022-10-18T11:20:32;16.60;99.90
15259;DHT22;34462;51.368;12.364;2022-10-18T11:23:07;16.60;99.90
15259;DHT22;34462;51.368;12.364;2022-10-18T11:25:56;16.60;99.90
15259;DHT22;34462;51.368;12.364;2022-10-18T11:28:43;16.60;99.90
15259;DHT22;34462;51.368;12.364;2022-10-18T11:31:26;16.60;99.90
15259;DHT22;34462;51.368;12.364;2022-10-18T11:34:12;16.60;99.90
15259;DHT22;34462;51.368;12.364;2022-10-18T11:36:57;16.60;99.90
15259;DHT22;34462;51.368;12.364;2022-10-18T11:40:01;16.50;99.90
15259;DHT22;34462;51.368;12.364;2022-10-18T11:42:43;16.40;99.90
15259;DHT22;34462;51.368;12.364;2022-10-18T11:45:28;16.40;99.90
15259;DHT22;34462;51.368;12.364;2022-10-18T11:48:11;16.40;99.90
15259;DHT22;34462;51.368;12.364;2022-10-18T11:50:54;16.50;99.90
15259;DHT22;34462;51.368;12.364;2022-10-18T11:53:32;16.50;99.90
15259;DHT22;34462;51.368;12.364;2022-10-18T11:56:13;16.40;99.90
15259;DHT22;34462;51.368;12.364;2022-10-18T11:59:07;16.40;99.90
15259;DHT22;34462;51.368;12.364;2022-10-18T12:02:09;16.40;99.90
15259;DHT22;34462;51.368;12.364;2022-10-18T12:04:56;16.40;99.90
15259;DHT22;34462;51.368;12.364;2022-10-18T12:07:54;16.30;99.90
15259;DHT22;34462;51.368;12.364;2022-10-18T12:10:28;16.10;99.90
15259;DHT22;34462;51.368;12.364;2022-10-18T12:13:24;16.00;99.90
15259;DHT22;34462;51.368;12.364;2022-10-18T12:16:01;16.00;99.90
15259;DHT22;34462;51.368;12.364;2022-10-18T12:18:32;16.00;99.90
15259;DHT22;34462;51.368;12.364;2022-10-18T12:21:04;16.00;99.90
15259;DHT22;34462;51.368;12.364;2022-10-18T12:23:37;16.00;99.90
15259;DHT22;34462;51.368;12.364;2022-10-18T12:26:14;16.00;99.90
15259;DHT22;34462;51.368;12.364;2022-10-18T12:28:53;16.00;99.90
15259;DHT22;34462;51.368;12.364;2022-10-18T12:31:31;16.00;99.90
15259;DHT22;34462;51.368;12.364;2022-10-18T12:34:22;16.10;99.90
15259;DHT22;34462;51.368;12.364;2022-10-18T12:37:21;16.10;99.90
15259;DHT22;34462;51.368;12.364;2022-10-18T12:40:02;16.10;99.90
15259;DHT22;34462;51.368;12.364;2022-10-18T12:42:41;16.10;99.90
15259;DHT22;34462;51.368;12.364;2022-10-18T12:45:28;16.20;99.90
15259;DHT22;34462;51.368;12.364;2022-10-18T12:48:01;16.20;99.90
15259;DHT22;34462;51.368;12.364;2022-10-18T12:50:34;16.20;99.90
15259;DHT22;34462;51.368;12.364;2022-10-18T12:53:11;16.20;99.90
15259;DHT22;34462;51.368;12.364;2022-10-18T12:55:45;16.30;99.90
15259;DHT22;34462;51.368;12.364;2022-10-18T12:58:32;16.30;99.90
15259;DHT22;34462;51.368;12.364;2022-10-18T13:01:06;16.50;99.90
15259;DHT22;34462;51.368;12.364;2022-10-18T13:03:50;16.50;99.90
15259;DHT22;34462;51.368;12.364;2022-10-18T13:06:21;16.60;99.90
15259;DHT22;34462;51.368;12.364;2022-10-18T13:09:16;16.80;99.90
15259;DHT22;34462;51.368;12.364;2022-10-18T13:11:46;16.90;99.90
15259;DHT22;34462;51.368;12.364;2022-10-18T13:14:22;17.00;99.90
15259;DHT22;34462;51.368;12.364;2022-10-18T13:17:32;17.00;99.90
15259;DHT22;34462;51.368;12.364;2022-10-18T13:20:21;17.00;99.90
15259;DHT22;34462;51.368;12.364;2022-10-18T13:23:04;17.00;99.90
15259;DHT22;34462;51.368;12.364;2022-10-18T13:25:58;17.00;99.90
15259;DHT22;34462;51.368;12.364;2022-10-18T13:28:44;17.00;99.90
15259;DHT22;34462;51.368;12.364;2022-10-18T13:31:22;17.00;99.90
15259;DHT22;34462;51.368;12.364;2022-10-18T13:34:15;17.00;99.90
15259;DHT22;34462;51.368;12.364;2022-10-18T13:36:56;16.90;99.90
15259;DHT22;34462;51.368;12.364;2022-10-18T13:39:26;16.80;99.90
15259;DHT22;34462;51.368;12.364;2022-10-18T13:42:18;16.80;99.90
15259;DHT22;34462;51.368;12.364;2022-10-18T13:45:42;16.70;99.90
15259;DHT22;34462;51.368;12.364;2022-10-18T13:48:45;16.80;99.90
15259;DHT22;34462;51.368;12.364;2022-10-18T13:51:43;16.90;99.90
15259;DHT22;34462;51.368;12.364;2022-10-18T13:54:34;16.90;99.90
15259;DHT22;34462;51.368;12.364;2022-10-18T13:57:25;16.80;99.90
15259;DHT22;34462;51.368;12.364;2022-10-18T14:00:42;16.90;99.90
15259;DHT22;34462;51.368;12.364;2022-10-18T14:03:50;17.00;99.90
15259;DHT22;34462;51.368;12.364;2022-10-18T14:06:34;16.90;99.90
15259;DHT22;34462;51.368;12.364;2022-10-18T14:09:15;17.00;99.90
15259;DHT22;34462;51.368;12.364;2022-10-18T14:12:13;17.10;99.90
15259;DHT22;34462;51.368;12.364;2022-10-18T14:14:52;17.00;99.90
15259;DHT22;34462;51.368;12.364;2022-10-18T14:17:30;17.10;99.90
15259;DHT22;34462;51.368;12.364;2022-10-18T14:20:18;17.10;99.90
15259;DHT22;34462;51.368;12.364;2022-10-18T14:23:01;17.00;99.90
15259;DHT22;34462;51.368;12.364;2022-10-18T14:25:37;17.00;99.90
15259;DHT22;34462;51.368;12.364;2022-10-18T14:28:10;16.80;99.90
15259;DHT22;34462;51.368;12.364;2022-10-18T14:30:52;16.70;99.90
15259;DHT22;34462;51.368;12.364;2022-10-18T14:33:30;16.70;99.90
15259;DHT22;34462;51.368;12.364;2022-10-18T14:36:05;16.70;99.90
15259;DHT22;34462;51.368;12.364;2022-10-18T14:38:47;16.70;99.90
15259;DHT22;34462;51.368;12.364;2022-10-18T14:41:22;16.70;99.90
15259;DHT22;34462;51.368;12.364;2022-10-18T14:44:07;16.80;99.90
15259;DHT22;34462;51.368;12.364;2022-10-18T14:46:45;16.80;99.90
15259;DHT22;34462;51.368;12.364;2022-10-18T14:49:16;16.80;99.90
15259;DHT22;34462;51.368;12.364;2022-10-18T14:51:48;16.70;99.90
15259;DHT22;34462;51.368;12.364;2022-10-18T14:54:20;16.70;99.90
15259;DHT22;34462;51.368;12.364;2022-10-18T14:56:59;16.70;99.90
15259;DHT22;34462;51.368;12.364;2022-10-18T14:59:31;16.60;99.90
15259;DHT22;34462;51.368;12.364;2022-10-18T15:02:05;16.60;99.90
15259;DHT22;34462;51.368;12.364;2022-10-18T15:04:43;16.60;99.90
15259;DHT22;34462;51.368;12.364;2022-10-18T15:07:13;16.50;99.90
15259;DHT22;34462;51.368;12.364;2022-10-18T15:09:44;16.40;99.90
15259;DHT22;34462;51.368;12.364;2022-10-18T15:12:15;16.40;99.90
15259;DHT22;34462;51.368;12.364;2022-10-18T15:14:45;16.40;99.90
15259;DHT22;34462;51.368;12.364;2022-10-18T15:17:17;16.30;99.90
15259;DHT22;34462;51.368;12.364;2022-10-18T15:19:54;16.20;99.90
15259;DHT22;34462;51.368;12.364;2022-10-18T15:22:30;16.20;99.90
15259;DHT22;34462;51.368;12.364;2022-10-18T15:25:11;16.20;99.90
15259;DHT22;34462;51.368;12.364;2022-10-18T15:27:45;16.10;99.90
15259;DHT22;34462;51.368;12.364;2022-10-18T15:30:18;16.10;99.90
15259;DHT22;34462;51.368;12.364;2022-10-18T15:32:52;16.10;99.90
15259;DHT22;34462;51.368;12.364;2022-10-18T15:35:25;16.00;99.90
15259;DHT22;34462;51.368;12.364;2022-10-18T15:37:56;16.00;99.90
15259;DHT22;34462;51.368;12.364;2022-10-18T15:40:36;16.00;99.90
15259;DHT22;34462;51.368;12.364;2022-10-18T15:43:33;16.00;99.90
15259;DHT22;34462;51.368;12.364;2022-10-18T15:46:04;16.00;99.90
15259;DHT22;34462;51.368;12.364;2022-10-18T15:48:35;15.90;99.90
15259;DHT22;34462;51.368;12.364;2022-10-18T15:51:05;15.90;99.90
15259;DHT22;34462;51.368;12.364;2022-10-18T15:53:42;15.80;99.90
15259;DHT22;34462;51.368;12.364;2022-10-18T15:56:27;15.80;99.90
15259;DHT22;34462;51.368;12.364;2022-10-18T15:59:00;15.80;99.90
15259;DHT22;34462;51.368;12.364;2022-10-18T16:01:42;15.80;99.90
15259;DHT22;34462;51.368;12.364;2022-10-18T16:04:15;15.70;99.90
15259;DHT22;34462;51.368;12.364;2022-10-18T16:06:46;15.70;99.90